sensor_id;sensor_type;location;lat;lon;timestamp;P1;durP1;ratioP1;P2;durP2;ratioP2
8365;SDS011;4220;42.502;24.188;2023-12-14T00:02:11;84.73;;;52.20;;
8365;SDS011;4220;42.502;24.188;2023-12-14T00:04:38;83.20;;;52.23;;
8365;SDS011;4220;42.502;24.188;2023-12-14T00:07:08;81.07;;;51.60;;
8365;SDS011;4220;42.502;24.188;2023-12-14T00:09:36;90.87;;;57.43;;
8365;SDS011;4220;42.502;24.188;2023-12-14T00:12:02;83.57;;;52.53;;
8365;SDS011;4220;42.502;24.188;2023-12-14T00:14:29;73.73;;;49.73;;
8365;SDS011;4220;42.502;24.188;2023-12-14T00:16:56;71.87;;;47.60;;
8365;SDS011;4220;42.502;24.188;2023-12-14T00:19:24;69.10;;;48.37;;
8365;SDS011;4220;42.502;24.188;2023-12-14T00:21:51;69.77;;;48.07;;
8365;SDS011;4220;42.502;24.188;2023-12-14T00:24:19;63.43;;;43.73;;
8365;SDS011;4220;42.502;24.188;2023-12-14T00:26:46;77.47;;;47.73;;
8365;SDS011;4220;42.502;24.188;2023-12-14T00:29:12;73.87;;;46.30;;
8365;SDS011;4220;42.502;24.188;2023-12-14T00:31:39;60.07;;;40.00;;
8365;SDS011;4220;42.502;24.188;2023-12-14T00:34:06;51.67;;;35.00;;
8365;SDS011;4220;42.502;24.188;2023-12-14T00:36:33;43.73;;;32.87;;
8365;SDS011;4220;42.502;24.188;2023-12-14T00:38:59;47.87;;;33.60;;
8365;SDS011;4220;42.502;24.188;2023-12-14T00:41:28;47.90;;;34.33;;
8365;SDS011;4220;42.502;24.188;2023-12-14T00:43:55;56.27;;;38.03;;
8365;SDS011;4220;42.502;24.188;2023-12-14T00:46:21;51.10;;;36.83;;
8365;SDS011;4220;42.502;24.188;2023-12-14T00:48:48;59.17;;;39.63;;
8365;SDS011;4220;42.502;24.188;2023-12-14T00:51:15;64.67;;;40.87;;
8365;SDS011;4220;42.502;24.188;2023-12-14T00:53:42;58.93;;;39.90;;
8365;SDS011;4220;42.502;24.188;2023-12-14T00:56:09;69.13;;;42.37;;
8365;SDS011;4220;42.502;24.188;2023-12-14T00:58:37;74.63;;;45.30;;
8365;SDS011;4220;42.502;24.188;2023-12-14T01:01:04;70.00;;;45.40;;
8365;SDS011;4220;42.502;24.188;2023-12-14T01:03:31;66.63;;;46.73;;
8365;SDS011;4220;42.502;24.188;2023-12-14T01:05:57;68.70;;;45.57;;
8365;SDS011;4220;42.502;24.188;2023-12-14T01:08:24;63.73;;;43.37;;
8365;SDS011;4220;42.502;24.188;2023-12-14T01:10:51;72.10;;;45.27;;
8365;SDS011;4220;42.502;24.188;2023-12-14T01:13:18;71.77;;;45.80;;
8365;SDS011;4220;42.502;24.188;2023-12-14T01:15:46;64.63;;;46.60;;
8365;SDS011;4220;42.502;24.188;2023-12-14T01:18:13;68.03;;;45.63;;
8365;SDS011;4220;42.502;24.188;2023-12-14T01:20:40;73.03;;;49.30;;
8365;SDS011;4220;42.502;24.188;2023-12-14T01:23:06;69.83;;;45.87;;
8365;SDS011;4220;42.502;24.188;2023-12-14T01:25:34;67.77;;;45.57;;
8365;SDS011;4220;42.502;24.188;2023-12-14T01:28:01;73.17;;;46.67;;
8365;SDS011;4220;42.502;24.188;2023-12-14T01:30:28;71.77;;;45.83;;
8365;SDS011;4220;42.502;24.188;2023-12-14T01:32:56;71.83;;;43.30;;
8365;SDS011;4220;42.502;24.188;2023-12-14T01:35:23;67.87;;;44.23;;
8365;SDS011;4220;42.502;24.188;2023-12-14T01:37:50;72.53;;;46.80;;
8365;SDS011;4220;42.502;24.188;2023-12-14T01:40:18;71.23;;;48.03;;
8365;SDS011;4220;42.502;24.188;2023-12-14T01:42:45;63.43;;;43.67;;
8365;SDS011;4220;42.502;24.188;2023-12-14T01:45:12;54.93;;;39.50;;
8365;SDS011;4220;42.502;24.188;2023-12-14T01:47:41;57.33;;;40.03;;
8365;SDS011;4220;42.502;24.188;2023-12-14T01:50:09;57.17;;;38.67;;
8365;SDS011;4220;42.502;24.188;2023-12-14T01:52:36;53.13;;;35.60;;
8365;SDS011;4220;42.502;24.188;2023-12-14T01:55:03;58.83;;;39.40;;
8365;SDS011;4220;42.502;24.188;2023-12-14T01:57:30;58.83;;;39.60;;
8365;SDS011;4220;42.502;24.188;2023-12-14T01:59:57;56.73;;;34.97;;
8365;SDS011;4220;42.502;24.188;2023-12-14T02:02:24;51.60;;;34.20;;
8365;SDS011;4220;42.502;24.188;2023-12-14T02:04:51;53.87;;;37.70;;
8365;SDS011;4220;42.502;24.188;2023-12-14T02:07:19;55.50;;;38.10;;
8365;SDS011;4220;42.502;24.188;2023-12-14T02:09:46;49.53;;;35.67;;
8365;SDS011;4220;42.502;24.188;2023-12-14T02:12:13;52.87;;;34.53;;
8365;SDS011;4220;42.502;24.188;2023-12-14T02:14:39;50.03;;;33.60;;
8365;SDS011;4220;42.502;24.188;2023-12-14T02:17:06;55.13;;;35.67;;
8365;SDS011;4220;42.502;24.188;2023-12-14T02:19:33;61.37;;;39.43;;
8365;SDS011;4220;42.502;24.188;2023-12-14T02:22:00;52.57;;;36.57;;
8365;SDS011;4220;42.502;24.188;2023-12-14T02:24:28;50.50;;;35.50;;
8365;SDS011;4220;42.502;24.188;2023-12-14T02:26:55;63.03;;;40.03;;
8365;SDS011;4220;42.502;24.188;2023-12-14T02:29:23;64.30;;;41.50;;
8365;SDS011;4220;42.502;24.188;2023-12-14T02:31:49;57.97;;;38.23;;
8365;SDS011;4220;42.502;24.188;2023-12-14T02:34:16;57.73;;;37.97;;
8365;SDS011;4220;42.502;24.188;2023-12-14T02:36:44;55.10;;;37.23;;
8365;SDS011;4220;42.502;24.188;2023-12-14T02:39:10;53.30;;;36.57;;
8365;SDS011;4220;42.502;24.188;2023-12-14T02:41:39;54.80;;;38.13;;
8365;SDS011;4220;42.502;24.188;2023-12-14T02:44:05;59.27;;;38.17;;
8365;SDS011;4220;42.502;24.188;2023-12-14T02:46:32;62.20;;;39.07;;
8365;SDS011;4220;42.502;24.188;2023-12-14T02:48:59;56.30;;;37.27;;
8365;SDS011;4220;42.502;24.188;2023-12-14T02:51:26;52.33;;;36.50;;
8365;SDS011;4220;42.502;24.188;2023-12-14T02:53:52;54.50;;;37.03;;
8365;SDS011;4220;42.502;24.188;2023-12-14T02:56:22;54.90;;;36.13;;
8365;SDS011;4220;42.502;24.188;2023-12-14T02:58:50;58.53;;;37.50;;
8365;SDS011;4220;42.502;24.188;2023-12-14T03:01:19;53.83;;;36.30;;
8365;SDS011;4220;42.502;24.188;2023-12-14T03:03:46;57.83;;;39.57;;
8365;SDS011;4220;42.502;24.188;2023-12-14T03:06:13;56.67;;;40.47;;
8365;SDS011;4220;42.502;24.188;2023-12-14T03:08:40;58.13;;;37.80;;
8365;SDS011;4220;42.502;24.188;2023-12-14T03:11:07;59.03;;;41.63;;
8365;SDS011;4220;42.502;24.188;2023-12-14T03:13:33;60.47;;;40.50;;
8365;SDS011;4220;42.502;24.188;2023-12-14T03:16:02;63.00;;;39.77;;
8365;SDS011;4220;42.502;24.188;2023-12-14T03:18:29;62.60;;;43.77;;
8365;SDS011;4220;42.502;24.188;2023-12-14T03:20:55;68.13;;;46.37;;
8365;SDS011;4220;42.502;24.188;2023-12-14T03:23:22;74.80;;;49.23;;
8365;SDS011;4220;42.502;24.188;2023-12-14T03:25:49;65.07;;;43.03;;
8365;SDS011;4220;42.502;24.188;2023-12-14T03:28:16;67.03;;;42.17;;
8365;SDS011;4220;42.502;24.188;2023-12-14T03:30:42;64.67;;;45.00;;
8365;SDS011;4220;42.502;24.188;2023-12-14T03:33:10;60.33;;;41.13;;
8365;SDS011;4220;42.502;24.188;2023-12-14T03:35:37;55.37;;;37.17;;
8365;SDS011;4220;42.502;24.188;2023-12-14T03:38:07;64.80;;;45.23;;
8365;SDS011;4220;42.502;24.188;2023-12-14T03:40:33;70.00;;;45.83;;
8365;SDS011;4220;42.502;24.188;2023-12-14T03:43:00;70.80;;;46.13;;
8365;SDS011;4220;42.502;24.188;2023-12-14T03:45:28;63.00;;;43.47;;
8365;SDS011;4220;42.502;24.188;2023-12-14T03:47:55;63.40;;;43.70;;
8365;SDS011;4220;42.502;24.188;2023-12-14T03:50:23;59.30;;;41.90;;
8365;SDS011;4220;42.502;24.188;2023-12-14T03:52:50;479.43;;;274.60;;
8365;SDS011;4220;42.502;24.188;2023-12-14T03:55:16;132.73;;;69.63;;
8365;SDS011;4220;42.502;24.188;2023-12-14T03:57:43;83.17;;;50.47;;
8365;SDS011;4220;42.502;24.188;2023-12-14T04:00:10;70.43;;;44.97;;
8365;SDS011;4220;42.502;24.188;2023-12-14T04:02:38;58.37;;;38.60;;
8365;SDS011;4220;42.502;24.188;2023-12-14T04:05:06;61.03;;;39.10;;
8365;SDS011;4220;42.502;24.188;2023-12-14T04:07:34;58.07;;;40.63;;
8365;SDS011;4220;42.502;24.188;2023-12-14T04:10:01;67.07;;;39.73;;
8365;SDS011;4220;42.502;24.188;2023-12-14T04:12:28;54.37;;;39.17;;
8365;SDS011;4220;42.502;24.188;2023-12-14T04:14:55;55.40;;;39.43;;
8365;SDS011;4220;42.502;24.188;2023-12-14T04:17:21;57.53;;;38.23;;
8365;SDS011;4220;42.502;24.188;2023-12-14T04:19:48;58.87;;;38.90;;
8365;SDS011;4220;42.502;24.188;2023-12-14T04:22:15;57.97;;;38.70;;
8365;SDS011;4220;42.502;24.188;2023-12-14T04:24:43;53.03;;;36.77;;
8365;SDS011;4220;42.502;24.188;2023-12-14T04:27:10;48.97;;;34.10;;
8365;SDS011;4220;42.502;24.188;2023-12-14T04:29:37;45.53;;;31.30;;
8365;SDS011;4220;42.502;24.188;2023-12-14T04:32:04;46.93;;;31.37;;
8365;SDS011;4220;42.502;24.188;2023-12-14T04:34:31;60.87;;;41.63;;
8365;SDS011;4220;42.502;24.188;2023-12-14T04:36:58;58.13;;;41.10;;
8365;SDS011;4220;42.502;24.188;2023-12-14T04:39:25;71.27;;;46.63;;
8365;SDS011;4220;42.502;24.188;2023-12-14T04:41:53;70.47;;;46.30;;
8365;SDS011;4220;42.502;24.188;2023-12-14T04:44:20;67.20;;;47.17;;
8365;SDS011;4220;42.502;24.188;2023-12-14T04:46:47;67.17;;;47.67;;
8365;SDS011;4220;42.502;24.188;2023-12-14T04:49:14;84.33;;;59.23;;
8365;SDS011;4220;42.502;24.188;2023-12-14T04:51:41;92.90;;;66.83;;
8365;SDS011;4220;42.502;24.188;2023-12-14T04:54:08;78.80;;;55.13;;
8365;SDS011;4220;42.502;24.188;2023-12-14T04:56:34;70.00;;;46.23;;
8365;SDS011;4220;42.502;24.188;2023-12-14T04:59:03;62.23;;;44.33;;
8365;SDS011;4220;42.502;24.188;2023-12-14T05:01:29;57.87;;;39.93;;
8365;SDS011;4220;42.502;24.188;2023-12-14T05:03:56;52.93;;;36.43;;
8365;SDS011;4220;42.502;24.188;2023-12-14T05:06:23;57.83;;;40.73;;
8365;SDS011;4220;42.502;24.188;2023-12-14T05:08:50;59.00;;;39.83;;
8365;SDS011;4220;42.502;24.188;2023-12-14T05:11:16;65.77;;;45.07;;
8365;SDS011;4220;42.502;24.188;2023-12-14T05:13:43;73.13;;;48.60;;
8365;SDS011;4220;42.502;24.188;2023-12-14T05:16:13;82.93;;;57.97;;
8365;SDS011;4220;42.502;24.188;2023-12-14T05:18:40;87.23;;;57.50;;
8365;SDS011;4220;42.502;24.188;2023-12-14T05:21:07;88.20;;;57.63;;
8365;SDS011;4220;42.502;24.188;2023-12-14T05:23:34;89.67;;;54.30;;
8365;SDS011;4220;42.502;24.188;2023-12-14T05:26:01;80.60;;;51.60;;
8365;SDS011;4220;42.502;24.188;2023-12-14T05:28:28;82.97;;;54.27;;
8365;SDS011;4220;42.502;24.188;2023-12-14T05:30:54;81.40;;;52.03;;
8365;SDS011;4220;42.502;24.188;2023-12-14T05:33:23;92.67;;;60.23;;
8365;SDS011;4220;42.502;24.188;2023-12-14T05:35:49;95.97;;;59.77;;
8365;SDS011;4220;42.502;24.188;2023-12-14T05:38:16;118.63;;;76.03;;
8365;SDS011;4220;42.502;24.188;2023-12-14T05:40:43;119.77;;;72.43;;
8365;SDS011;4220;42.502;24.188;2023-12-14T05:43:10;109.87;;;67.97;;
8365;SDS011;4220;42.502;24.188;2023-12-14T05:45:37;132.40;;;85.70;;
8365;SDS011;4220;42.502;24.188;2023-12-14T05:48:04;123.60;;;78.57;;
8365;SDS011;4220;42.502;24.188;2023-12-14T05:50:32;105.20;;;66.70;;
8365;SDS011;4220;42.502;24.188;2023-12-14T05:52:59;110.70;;;76.23;;
8365;SDS011;4220;42.502;24.188;2023-12-14T05:55:26;108.83;;;72.90;;
8365;SDS011;4220;42.502;24.188;2023-12-14T05:57:53;117.97;;;74.53;;
8365;SDS011;4220;42.502;24.188;2023-12-14T06:00:21;109.13;;;76.27;;
8365;SDS011;4220;42.502;24.188;2023-12-14T06:02:48;113.00;;;75.10;;
8365;SDS011;4220;42.502;24.188;2023-12-14T06:05:15;122.73;;;82.50;;
8365;SDS011;4220;42.502;24.188;2023-12-14T06:07:43;112.87;;;78.23;;
8365;SDS011;4220;42.502;24.188;2023-12-14T06:10:10;230.40;;;124.87;;
8365;SDS011;4220;42.502;24.188;2023-12-14T06:12:37;147.20;;;89.13;;
8365;SDS011;4220;42.502;24.188;2023-12-14T06:15:05;108.20;;;72.23;;
8365;SDS011;4220;42.502;24.188;2023-12-14T06:17:36;132.27;;;91.77;;
8365;SDS011;4220;42.502;24.188;2023-12-14T06:20:04;127.97;;;87.87;;
8365;SDS011;4220;42.502;24.188;2023-12-14T06:22:33;134.33;;;92.87;;
8365;SDS011;4220;42.502;24.188;2023-12-14T06:25:03;142.37;;;91.30;;
8365;SDS011;4220;42.502;24.188;2023-12-14T06:27:30;128.23;;;84.80;;
8365;SDS011;4220;42.502;24.188;2023-12-14T06:29:57;130.77;;;87.60;;
8365;SDS011;4220;42.502;24.188;2023-12-14T06:32:24;112.23;;;76.80;;
8365;SDS011;4220;42.502;24.188;2023-12-14T06:34:52;255.17;;;157.47;;
8365;SDS011;4220;42.502;24.188;2023-12-14T06:37:18;364.90;;;235.30;;
8365;SDS011;4220;42.502;24.188;2023-12-14T06:39:45;200.60;;;129.40;;
8365;SDS011;4220;42.502;24.188;2023-12-14T06:42:21;209.13;;;127.63;;
8365;SDS011;4220;42.502;24.188;2023-12-14T06:44:47;219.23;;;141.83;;
8365;SDS011;4220;42.502;24.188;2023-12-14T06:47:14;311.13;;;198.27;;
8365;SDS011;4220;42.502;24.188;2023-12-14T06:49:41;207.70;;;129.13;;
8365;SDS011;4220;42.502;24.188;2023-12-14T06:52:08;211.50;;;142.20;;
8365;SDS011;4220;42.502;24.188;2023-12-14T06:54:35;108.73;;;71.20;;
8365;SDS011;4220;42.502;24.188;2023-12-14T06:57:02;264.00;;;163.50;;
8365;SDS011;4220;42.502;24.188;2023-12-14T06:59:30;141.33;;;91.80;;
8365;SDS011;4220;42.502;24.188;2023-12-14T07:01:57;108.73;;;76.27;;
8365;SDS011;4220;42.502;24.188;2023-12-14T07:04:24;109.73;;;75.30;;
8365;SDS011;4220;42.502;24.188;2023-12-14T07:06:51;118.97;;;80.37;;
8365;SDS011;4220;42.502;24.188;2023-12-14T07:09:18;125.80;;;79.33;;
8365;SDS011;4220;42.502;24.188;2023-12-14T07:11:45;128.23;;;83.80;;
8365;SDS011;4220;42.502;24.188;2023-12-14T07:14:11;132.00;;;95.90;;
8365;SDS011;4220;42.502;24.188;2023-12-14T07:16:41;138.73;;;91.50;;
8365;SDS011;4220;42.502;24.188;2023-12-14T07:19:08;227.50;;;139.43;;
8365;SDS011;4220;42.502;24.188;2023-12-14T07:21:35;287.50;;;174.70;;
8365;SDS011;4220;42.502;24.188;2023-12-14T07:24:02;121.43;;;80.97;;
8365;SDS011;4220;42.502;24.188;2023-12-14T07:26:29;104.70;;;69.83;;
8365;SDS011;4220;42.502;24.188;2023-12-14T07:28:56;115.83;;;79.97;;
8365;SDS011;4220;42.502;24.188;2023-12-14T07:31:23;137.97;;;95.17;;
8365;SDS011;4220;42.502;24.188;2023-12-14T07:33:51;195.60;;;129.57;;
8365;SDS011;4220;42.502;24.188;2023-12-14T07:36:18;183.93;;;122.07;;
8365;SDS011;4220;42.502;24.188;2023-12-14T07:38:45;184.50;;;122.30;;
8365;SDS011;4220;42.502;24.188;2023-12-14T07:41:12;176.87;;;121.03;;
8365;SDS011;4220;42.502;24.188;2023-12-14T07:43:38;165.47;;;117.33;;
8365;SDS011;4220;42.502;24.188;2023-12-14T07:46:05;171.83;;;119.93;;
8365;SDS011;4220;42.502;24.188;2023-12-14T07:48:32;164.23;;;118.47;;
8365;SDS011;4220;42.502;24.188;2023-12-14T07:51:00;159.83;;;110.53;;
8365;SDS011;4220;42.502;24.188;2023-12-14T07:53:27;151.47;;;109.30;;
8365;SDS011;4220;42.502;24.188;2023-12-14T07:55:54;115.37;;;83.60;;
8365;SDS011;4220;42.502;24.188;2023-12-14T07:58:21;114.70;;;81.80;;
8365;SDS011;4220;42.502;24.188;2023-12-14T08:00:47;115.43;;;80.63;;
8365;SDS011;4220;42.502;24.188;2023-12-14T08:03:14;133.23;;;94.00;;
8365;SDS011;4220;42.502;24.188;2023-12-14T08:05:41;135.00;;;95.07;;
8365;SDS011;4220;42.502;24.188;2023-12-14T08:08:09;132.77;;;93.90;;
8365;SDS011;4220;42.502;24.188;2023-12-14T08:10:36;132.50;;;96.63;;
8365;SDS011;4220;42.502;24.188;2023-12-14T08:13:03;148.10;;;107.97;;
8365;SDS011;4220;42.502;24.188;2023-12-14T08:15:30;143.70;;;97.57;;
8365;SDS011;4220;42.502;24.188;2023-12-14T08:17:56;138.80;;;102.60;;
8365;SDS011;4220;42.502;24.188;2023-12-14T08:20:23;139.60;;;100.67;;
8365;SDS011;4220;42.502;24.188;2023-12-14T08:22:50;134.57;;;99.53;;
8365;SDS011;4220;42.502;24.188;2023-12-14T08:25:18;131.37;;;92.87;;
8365;SDS011;4220;42.502;24.188;2023-12-14T08:27:45;117.77;;;84.93;;
8365;SDS011;4220;42.502;24.188;2023-12-14T08:30:12;140.23;;;103.00;;
8365;SDS011;4220;42.502;24.188;2023-12-14T08:32:40;129.90;;;96.70;;
8365;SDS011;4220;42.502;24.188;2023-12-14T08:35:07;139.47;;;102.47;;
8365;SDS011;4220;42.502;24.188;2023-12-14T08:37:35;134.83;;;98.67;;
8365;SDS011;4220;42.502;24.188;2023-12-14T08:40:01;132.53;;;99.27;;
8365;SDS011;4220;42.502;24.188;2023-12-14T08:42:30;130.30;;;91.33;;
8365;SDS011;4220;42.502;24.188;2023-12-14T08:44:57;121.60;;;87.37;;
8365;SDS011;4220;42.502;24.188;2023-12-14T08:47:24;114.67;;;85.40;;
8365;SDS011;4220;42.502;24.188;2023-12-14T08:49:50;110.83;;;81.97;;
8365;SDS011;4220;42.502;24.188;2023-12-14T08:52:18;122.03;;;90.73;;
8365;SDS011;4220;42.502;24.188;2023-12-14T08:54:45;114.00;;;82.60;;
8365;SDS011;4220;42.502;24.188;2023-12-14T08:57:12;131.47;;;99.97;;
8365;SDS011;4220;42.502;24.188;2023-12-14T08:59:40;147.77;;;110.57;;
8365;SDS011;4220;42.502;24.188;2023-12-14T09:02:06;152.17;;;111.63;;
8365;SDS011;4220;42.502;24.188;2023-12-14T09:04:33;142.27;;;105.63;;
8365;SDS011;4220;42.502;24.188;2023-12-14T09:07:01;139.00;;;105.90;;
8365;SDS011;4220;42.502;24.188;2023-12-14T09:09:29;144.33;;;107.63;;
8365;SDS011;4220;42.502;24.188;2023-12-14T09:11:55;146.90;;;112.30;;
8365;SDS011;4220;42.502;24.188;2023-12-14T09:14:23;155.10;;;116.30;;
8365;SDS011;4220;42.502;24.188;2023-12-14T09:16:51;147.77;;;109.03;;
8365;SDS011;4220;42.502;24.188;2023-12-14T09:19:18;151.60;;;114.60;;
8365;SDS011;4220;42.502;24.188;2023-12-14T09:21:44;138.83;;;102.50;;
8365;SDS011;4220;42.502;24.188;2023-12-14T09:24:11;120.97;;;91.87;;
8365;SDS011;4220;42.502;24.188;2023-12-14T09:26:38;122.67;;;87.00;;
8365;SDS011;4220;42.502;24.188;2023-12-14T09:29:05;105.87;;;80.47;;
8365;SDS011;4220;42.502;24.188;2023-12-14T09:31:32;94.80;;;72.37;;
8365;SDS011;4220;42.502;24.188;2023-12-14T09:34:00;99.57;;;73.83;;
8365;SDS011;4220;42.502;24.188;2023-12-14T09:36:27;104.83;;;75.70;;
8365;SDS011;4220;42.502;24.188;2023-12-14T09:38:54;124.17;;;90.40;;
8365;SDS011;4220;42.502;24.188;2023-12-14T09:41:20;123.67;;;88.03;;
8365;SDS011;4220;42.502;24.188;2023-12-14T09:43:48;117.67;;;87.00;;
8365;SDS011;4220;42.502;24.188;2023-12-14T09:46:15;106.43;;;77.43;;
8365;SDS011;4220;42.502;24.188;2023-12-14T09:48:44;104.37;;;72.57;;
8365;SDS011;4220;42.502;24.188;2023-12-14T09:51:13;101.47;;;70.10;;
8365;SDS011;4220;42.502;24.188;2023-12-14T09:53:42;97.10;;;72.40;;
8365;SDS011;4220;42.502;24.188;2023-12-14T09:56:09;113.37;;;85.37;;
8365;SDS011;4220;42.502;24.188;2023-12-14T09:58:35;111.37;;;85.03;;
8365;SDS011;4220;42.502;24.188;2023-12-14T10:01:03;111.03;;;75.40;;
8365;SDS011;4220;42.502;24.188;2023-12-14T10:03:47;91.90;;;69.37;;
8365;SDS011;4220;42.502;24.188;2023-12-14T10:06:17;71.80;;;51.30;;
8365;SDS011;4220;42.502;24.188;2023-12-14T10:08:52;64.17;;;48.47;;
8365;SDS011;4220;42.502;24.188;2023-12-14T10:11:20;71.30;;;51.43;;
8365;SDS011;4220;42.502;24.188;2023-12-14T10:13:47;47.13;;;37.40;;
8365;SDS011;4220;42.502;24.188;2023-12-14T10:16:26;51.83;;;39.73;;
8365;SDS011;4220;42.502;24.188;2023-12-14T10:18:54;61.27;;;45.43;;
8365;SDS011;4220;42.502;24.188;2023-12-14T10:21:23;63.80;;;48.30;;
8365;SDS011;4220;42.502;24.188;2023-12-14T10:23:50;54.67;;;39.97;;
8365;SDS011;4220;42.502;24.188;2023-12-14T10:26:17;57.37;;;45.10;;
8365;SDS011;4220;42.502;24.188;2023-12-14T10:28:44;59.10;;;45.10;;
8365;SDS011;4220;42.502;24.188;2023-12-14T10:31:11;54.08;;;40.13;;
8365;SDS011;4220;42.502;24.188;2023-12-14T10:33:38;55.97;;;39.75;;
8365;SDS011;4220;42.502;24.188;2023-12-14T10:36:05;53.08;;;41.20;;
8365;SDS011;4220;42.502;24.188;2023-12-14T10:38:35;48.53;;;37.50;;
8365;SDS011;4220;42.502;24.188;2023-12-14T10:41:04;46.63;;;36.85;;
8365;SDS011;4220;42.502;24.188;2023-12-14T10:43:32;43.80;;;32.35;;
8365;SDS011;4220;42.502;24.188;2023-12-14T10:46:02;38.08;;;27.63;;
8365;SDS011;4220;42.502;24.188;2023-12-14T10:48:31;37.00;;;29.52;;
8365;SDS011;4220;42.502;24.188;2023-12-14T10:51:01;29.75;;;23.58;;
8365;SDS011;4220;42.502;24.188;2023-12-14T10:53:29;30.55;;;24.70;;
8365;SDS011;4220;42.502;24.188;2023-12-14T10:55:57;34.75;;;27.17;;
8365;SDS011;4220;42.502;24.188;2023-12-14T10:58:26;39.97;;;30.92;;
8365;SDS011;4220;42.502;24.188;2023-12-14T11:01:00;30.60;;;25.40;;
8365;SDS011;4220;42.502;24.188;2023-12-14T11:03:32;32.38;;;26.58;;
8365;SDS011;4220;42.502;24.188;2023-12-14T11:06:00;50.85;;;38.13;;
8365;SDS011;4220;42.502;24.188;2023-12-14T11:08:27;44.72;;;35.83;;
8365;SDS011;4220;42.502;24.188;2023-12-14T11:10:54;38.78;;;30.75;;
8365;SDS011;4220;42.502;24.188;2023-12-14T11:13:35;37.78;;;31.45;;
8365;SDS011;4220;42.502;24.188;2023-12-14T11:16:04;41.95;;;32.50;;
8365;SDS011;4220;42.502;24.188;2023-12-14T11:18:31;40.03;;;32.95;;
8365;SDS011;4220;42.502;24.188;2023-12-14T11:20:58;30.13;;;24.65;;
8365;SDS011;4220;42.502;24.188;2023-12-14T11:23:28;29.98;;;22.90;;
8365;SDS011;4220;42.502;24.188;2023-12-14T11:26:02;32.22;;;23.15;;
8365;SDS011;4220;42.502;24.188;2023-12-14T11:28:30;30.05;;;25.45;;
8365;SDS011;4220;42.502;24.188;2023-12-14T11:30:57;27.10;;;23.65;;
8365;SDS011;4220;42.502;24.188;2023-12-14T11:33:24;29.10;;;23.80;;
8365;SDS011;4220;42.502;24.188;2023-12-14T11:35:53;25.35;;;19.67;;
8365;SDS011;4220;42.502;24.188;2023-12-14T11:38:20;27.42;;;18.73;;
8365;SDS011;4220;42.502;24.188;2023-12-14T11:40:48;23.98;;;17.67;;
8365;SDS011;4220;42.502;24.188;2023-12-14T11:43:17;24.92;;;18.40;;
8365;SDS011;4220;42.502;24.188;2023-12-14T11:45:45;21.35;;;15.70;;
8365;SDS011;4220;42.502;24.188;2023-12-14T11:48:12;20.15;;;15.27;;
8365;SDS011;4220;42.502;24.188;2023-12-14T11:50:40;19.13;;;15.30;;
8365;SDS011;4220;42.502;24.188;2023-12-14T11:53:08;20.35;;;16.15;;
8365;SDS011;4220;42.502;24.188;2023-12-14T11:55:35;26.73;;;19.75;;
8365;SDS011;4220;42.502;24.188;2023-12-14T11:58:04;28.27;;;22.95;;
8365;SDS011;4220;42.502;24.188;2023-12-14T12:00:33;29.80;;;24.02;;
8365;SDS011;4220;42.502;24.188;2023-12-14T12:03:09;35.70;;;28.13;;
8365;SDS011;4220;42.502;24.188;2023-12-14T12:05:37;38.50;;;29.30;;
8365;SDS011;4220;42.502;24.188;2023-12-14T12:08:05;239.25;;;167.93;;
8365;SDS011;4220;42.502;24.188;2023-12-14T12:10:32;387.83;;;273.02;;
8365;SDS011;4220;42.502;24.188;2023-12-14T12:13:00;45.03;;;32.25;;
8365;SDS011;4220;42.502;24.188;2023-12-14T12:15:28;31.48;;;24.30;;
8365;SDS011;4220;42.502;24.188;2023-12-14T12:17:57;27.83;;;22.98;;
8365;SDS011;4220;42.502;24.188;2023-12-14T12:20:24;27.55;;;23.90;;
8365;SDS011;4220;42.502;24.188;2023-12-14T12:22:52;27.98;;;22.60;;
8365;SDS011;4220;42.502;24.188;2023-12-14T12:25:19;25.23;;;19.30;;
8365;SDS011;4220;42.502;24.188;2023-12-14T12:27:46;20.50;;;16.25;;
8365;SDS011;4220;42.502;24.188;2023-12-14T12:30:13;15.52;;;13.93;;
8365;SDS011;4220;42.502;24.188;2023-12-14T12:32:40;20.73;;;16.08;;
8365;SDS011;4220;42.502;24.188;2023-12-14T12:35:10;31.25;;;20.65;;
8365;SDS011;4220;42.502;24.188;2023-12-14T12:37:36;18.90;;;14.43;;
8365;SDS011;4220;42.502;24.188;2023-12-14T12:40:04;21.17;;;16.80;;
8365;SDS011;4220;42.502;24.188;2023-12-14T12:42:32;24.73;;;17.67;;
8365;SDS011;4220;42.502;24.188;2023-12-14T12:44:59;26.88;;;18.77;;
8365;SDS011;4220;42.502;24.188;2023-12-14T12:47:26;23.83;;;18.73;;
8365;SDS011;4220;42.502;24.188;2023-12-14T12:49:52;28.30;;;18.17;;
8365;SDS011;4220;42.502;24.188;2023-12-14T12:52:20;26.60;;;18.77;;
8365;SDS011;4220;42.502;24.188;2023-12-14T12:54:47;15.90;;;11.45;;
8365;SDS011;4220;42.502;24.188;2023-12-14T12:57:14;16.55;;;11.18;;
8365;SDS011;4220;42.502;24.188;2023-12-14T12:59:41;11.60;;;8.95;;
8365;SDS011;4220;42.502;24.188;2023-12-14T13:02:08;14.00;;;10.48;;
8365;SDS011;4220;42.502;24.188;2023-12-14T13:04:34;17.83;;;13.68;;
8365;SDS011;4220;42.502;24.188;2023-12-14T13:07:02;8.73;;;7.25;;
8365;SDS011;4220;42.502;24.188;2023-12-14T13:09:31;10.60;;;9.07;;
8365;SDS011;4220;42.502;24.188;2023-12-14T13:11:57;18.00;;;14.60;;
8365;SDS011;4220;42.502;24.188;2023-12-14T13:14:24;13.65;;;11.20;;
8365;SDS011;4220;42.502;24.188;2023-12-14T13:16:51;15.73;;;11.77;;
8365;SDS011;4220;42.502;24.188;2023-12-14T13:19:19;20.35;;;12.55;;
8365;SDS011;4220;42.502;24.188;2023-12-14T13:21:45;9.60;;;5.78;;
8365;SDS011;4220;42.502;24.188;2023-12-14T13:24:12;8.13;;;6.28;;
8365;SDS011;4220;42.502;24.188;2023-12-14T13:26:40;14.57;;;10.98;;
8365;SDS011;4220;42.502;24.188;2023-12-14T13:29:07;14.07;;;10.13;;
8365;SDS011;4220;42.502;24.188;2023-12-14T13:31:34;28.55;;;20.95;;
8365;SDS011;4220;42.502;24.188;2023-12-14T13:34:00;29.00;;;23.38;;
8365;SDS011;4220;42.502;24.188;2023-12-14T13:36:28;38.60;;;29.10;;
8365;SDS011;4220;42.502;24.188;2023-12-14T13:38:55;38.92;;;27.95;;
8365;SDS011;4220;42.502;24.188;2023-12-14T13:41:22;45.08;;;34.08;;
8365;SDS011;4220;42.502;24.188;2023-12-14T13:43:50;45.15;;;32.42;;
8365;SDS011;4220;42.502;24.188;2023-12-14T13:46:17;40.67;;;30.98;;
8365;SDS011;4220;42.502;24.188;2023-12-14T13:48:44;47.60;;;35.95;;
8365;SDS011;4220;42.502;24.188;2023-12-14T13:51:11;91.07;;;70.22;;
8365;SDS011;4220;42.502;24.188;2023-12-14T13:53:38;73.93;;;52.10;;
8365;SDS011;4220;42.502;24.188;2023-12-14T13:56:05;43.20;;;31.60;;
8365;SDS011;4220;42.502;24.188;2023-12-14T13:58:32;46.08;;;32.38;;
8365;SDS011;4220;42.502;24.188;2023-12-14T14:01:03;55.17;;;40.67;;
8365;SDS011;4220;42.502;24.188;2023-12-14T14:03:32;61.08;;;45.85;;
8365;SDS011;4220;42.502;24.188;2023-12-14T14:05:59;62.70;;;46.88;;
8365;SDS011;4220;42.502;24.188;2023-12-14T14:08:27;61.83;;;46.40;;
8365;SDS011;4220;42.502;24.188;2023-12-14T14:10:54;63.30;;;42.95;;
8365;SDS011;4220;42.502;24.188;2023-12-14T14:13:20;93.10;;;65.03;;
8365;SDS011;4220;42.502;24.188;2023-12-14T14:15:48;58.00;;;44.72;;
8365;SDS011;4220;42.502;24.188;2023-12-14T14:18:16;60.67;;;44.60;;
8365;SDS011;4220;42.502;24.188;2023-12-14T14:20:43;52.42;;;38.47;;
8365;SDS011;4220;42.502;24.188;2023-12-14T14:23:10;43.38;;;32.58;;
8365;SDS011;4220;42.502;24.188;2023-12-14T14:25:37;36.70;;;29.13;;
8365;SDS011;4220;42.502;24.188;2023-12-14T14:28:04;45.58;;;33.67;;
8365;SDS011;4220;42.502;24.188;2023-12-14T14:30:31;10.18;;;7.95;;